EDOP

Schwerin Parchim Airport

Germany
METAR EDOP 180550Z AUTO 24004KT 210V270 9999NDV BKN084/// 17/11 Q1019
Observed Flight Rules
Jun-18 @ 05:50 UTC (6 hours ago)
Wind Clouds
240° at 4 knots
  • Broken at 8,400' AGL
Temperatures Readings
Current 17°C / 63°F
Dewpoint 11°C / 52°F
Humidity 68%
Altimeter 30.09" Hg
Pressure 1019 hPa
Elevation 51
METAR EDOP 180550Z AUTO 24004KT 210V270 9999NDV BKN084/// 17/11 Q1019
Observed Flight Rules
Jun-18 @ 05:50 UTC
(6 hours ago)
Wind
240° at 4 knots
Clouds
  • Broken at 8,400' AGL
Temperature Dewpoint
17°C / 63°F 11°C / 52°F
Humidity Altimeter Pressure
68% 30.09" Hg 1019 hPa